Time;durP1;ratioP1;P1;durP2;ratioP2;P2;SDS_P1;SDS_P2;PMS_P1;PMS_P2;Temp;Humidity;BMP_temperature;BMP_pressure;BME280_temperature;BME280_humidity;BME280_pressure;Samples;Min_cycle;Max_cycle;Signal;HPM_P1;HPM_P2
2022/05/14 00:01:00;;;;;;;;;;;14.20;94.80;;;;;;5037136;28;19908;-77
2022/05/14 00:03:27;;;;;;;;;;;14.10;95.70;;;;;;5055206;28;19909;-78
2022/05/14 00:05:53;;;;;;;;;;;14.10;96.10;;;;;;5037221;28;19908;-74
2022/05/14 00:08:20;;;;;;;;;;;14.20;96.40;;;;;;5055138;28;19920;-75
2022/05/14 00:13:29;;;;;;;;;;;14.10;97.30;;;;;;5054791;28;20347;-76
2022/05/14 00:15:55;;;;;;;;;;;13.80;97.70;;;;;;5055489;28;19913;-77
2022/05/14 00:18:21;;;;;;;;;;;13.90;97.90;;;;;;5054810;28;19913;-77
2022/05/14 00:20:47;;;;;;;;;;;13.90;98.90;;;;;;5054988;28;19957;-77
2022/05/14 00:23:14;;;;;;;;;;;13.80;99.10;;;;;;5036972;28;19909;-76
2022/05/14 00:25:39;;;;;;;;;;;13.70;99.90;;;;;;5055286;28;19913;-75
2022/05/14 00:28:06;;;;;;;;;;;13.80;99.80;;;;;;5054766;28;19909;-75
2022/05/14 00:30:31;;;;;;;;;;;13.90;99.90;;;;;;5055076;28;19999;-77
2022/05/14 00:32:57;;;;;;;;;;;13.80;99.90;;;;;;5054709;28;19952;-75
2022/05/14 00:35:23;;;;;;;;;;;13.80;99.90;;;;;;5054507;28;20373;-75
2022/05/14 00:37:49;;;;;;;;;;;13.90;99.90;;;;;;5053834;28;20013;-77
2022/05/14 00:40:16;;;;;;;;;;;13.90;99.90;;;;;;5054713;28;19908;-76
2022/05/14 00:42:42;;;;;;;;;;;13.60;99.90;;;;;;5054438;28;19999;-75
2022/05/14 00:45:09;;;;;;;;;;;13.60;99.90;;;;;;5054525;28;20002;-77
2022/05/14 00:47:36;;;;;;;;;;;13.60;99.90;;;;;;5054330;28;19947;-77
2022/05/14 00:50:04;;;;;;;;;;;13.40;99.90;;;;;;5054499;28;19988;-77
2022/05/14 00:52:29;;;;;;;;;;;13.40;99.90;;;;;;5054311;28;19916;-77
2022/05/14 00:55:00;;;;;;;;;;;13.50;99.90;;;;;;5054358;28;19908;-75
2022/05/14 00:57:27;;;;;;;;;;;13.50;99.90;;;;;;5054410;28;19912;-76
2022/05/14 00:59:53;;;;;;;;;;;13.30;99.90;;;;;;5054541;28;19916;-75
2022/05/14 01:02:19;;;;;;;;;;;13.20;99.90;;;;;;5054468;28;19921;-75
2022/05/14 01:04:45;;;;;;;;;;;13.20;99.90;;;;;;5054217;28;20004;-78
2022/05/14 01:07:17;;;;;;;;;;;13.10;99.90;;;;;;5054051;28;19958;-78
2022/05/14 01:09:45;;;;;;;;;;;13.00;99.90;;;;;;5054225;28;20004;-77
2022/05/14 01:12:12;;;;;;;;;;;13.00;99.90;;;;;;5053929;28;19954;-76
2022/05/14 01:14:38;;;;;;;;;;;13.10;99.90;;;;;;5054172;28;20107;-76
2022/05/14 01:17:04;;;;;;;;;;;12.90;99.90;;;;;;5053902;28;20465;-77
2022/05/14 01:19:30;;;;;;;;;;;12.90;99.90;;;;;;5054093;28;19908;-74
2022/05/14 01:21:55;;;;;;;;;;;12.90;99.90;;;;;;5035920;28;19908;-76
2022/05/14 01:27:05;;;;;;;;;;;13.40;99.90;;;;;;5053522;28;19920;-74
2022/05/14 01:29:31;;;;;;;;;;;13.80;99.90;;;;;;5054096;28;19940;-78
2022/05/14 01:31:56;;;;;;;;;;;14.00;99.90;;;;;;5053965;28;19963;-80
2022/05/14 01:34:24;;;;;;;;;;;14.00;99.90;;;;;;5053645;28;19916;-75
2022/05/14 01:36:50;;;;;;;;;;;13.90;99.90;;;;;;5035451;28;19931;-77
2022/05/14 01:39:15;;;;;;;;;;;13.90;99.90;;;;;;5053599;28;19996;-75
2022/05/14 01:41:41;;;;;;;;;;;14.00;99.90;;;;;;5035716;28;19909;-74
2022/05/14 01:44:07;;;;;;;;;;;14.00;99.90;;;;;;5053672;28;19959;-77
2022/05/14 01:46:33;;;;;;;;;;;14.10;99.90;;;;;;5053500;28;19909;-74
2022/05/14 01:48:58;;;;;;;;;;;14.00;99.90;;;;;;5053255;28;19913;-77
2022/05/14 01:51:24;;;;;;;;;;;13.90;99.90;;;;;;5053628;28;19916;-77
2022/05/14 01:53:51;;;;;;;;;;;14.00;99.90;;;;;;5053551;28;20281;-78
2022/05/14 01:56:17;;;;;;;;;;;14.10;99.90;;;;;;5053429;28;20003;-77
2022/05/14 01:58:43;;;;;;;;;;;14.10;99.90;;;;;;5053445;28;20004;-77
2022/05/14 02:01:14;;;;;;;;;;;14.10;99.90;;;;;;5053884;28;19920;-76
2022/05/14 02:03:41;;;;;;;;;;;14.10;99.90;;;;;;5053355;28;19909;-76
2022/05/14 02:06:07;;;;;;;;;;;14.20;99.90;;;;;;5053484;28;20392;-77
2022/05/14 02:08:32;;;;;;;;;;;14.10;99.90;;;;;;5053455;28;19955;-78
2022/05/14 02:10:58;;;;;;;;;;;14.00;99.90;;;;;;5053258;28;19909;-77
2022/05/14 02:13:24;;;;;;;;;;;14.00;99.90;;;;;;5053484;28;19916;-78
2022/05/14 02:15:50;;;;;;;;;;;13.90;99.90;;;;;;5053407;28;19915;-79
2022/05/14 02:18:16;;;;;;;;;;;13.70;99.90;;;;;;5053183;28;19986;-78
2022/05/14 02:20:42;;;;;;;;;;;13.30;99.90;;;;;;5053159;28;19940;-79
2022/05/14 02:23:07;;;;;;;;;;;13.20;99.90;;;;;;5053446;28;19909;-78
2022/05/14 02:25:33;;;;;;;;;;;13.50;99.90;;;;;;5053159;28;20252;-77
2022/05/14 02:27:59;;;;;;;;;;;13.50;99.90;;;;;;5053110;28;19913;-77
2022/05/14 02:30:25;;;;;;;;;;;13.10;99.90;;;;;;5035305;28;19982;-80
2022/05/14 02:32:50;;;;;;;;;;;13.20;99.90;;;;;;5053297;28;20008;-77
2022/05/14 02:35:16;;;;;;;;;;;13.10;99.90;;;;;;5052907;28;20000;-75
2022/05/14 02:37:41;;;;;;;;;;;13.10;99.90;;;;;;5053224;28;19963;-78
2022/05/14 02:40:07;;;;;;;;;;;13.20;99.90;;;;;;5053150;28;19916;-77
2022/05/14 02:42:33;;;;;;;;;;;13.30;99.90;;;;;;5053169;28;19909;-77
2022/05/14 02:44:58;;;;;;;;;;;13.20;99.90;;;;;;5053014;28;20301;-78
2022/05/14 02:47:24;;;;;;;;;;;13.10;99.90;;;;;;5053430;28;19908;-78
2022/05/14 02:49:49;;;;;;;;;;;13.10;99.90;;;;;;5052979;28;20326;-77
2022/05/14 02:52:15;;;;;;;;;;;13.10;99.90;;;;;;5053042;28;19908;-78
2022/05/14 02:54:41;;;;;;;;;;;13.00;99.90;;;;;;5053019;28;19909;-78
2022/05/14 02:57:06;;;;;;;;;;;13.00;99.90;;;;;;5052826;28;19913;-79
2022/05/14 02:59:32;;;;;;;;;;;12.80;99.90;;;;;;5052934;28;20395;-78
2022/05/14 03:01:58;;;;;;;;;;;12.80;99.90;;;;;;5056397;28;20380;-78
2022/05/14 03:04:27;;;;;;;;;;;13.00;99.90;;;;;;5056446;28;19915;-77
2022/05/14 03:06:53;;;;;;;;;;;13.00;99.90;;;;;;5038458;28;20281;-76
2022/05/14 03:09:19;;;;;;;;;;;13.10;99.90;;;;;;5056712;28;19912;-78
2022/05/14 03:11:45;;;;;;;;;;;13.20;99.90;;;;;;5056179;28;20383;-78
2022/05/14 03:14:12;;;;;;;;;;;13.20;99.90;;;;;;5056324;28;19991;-78
2022/05/14 03:16:38;;;;;;;;;;;13.00;99.90;;;;;;5056090;28;20420;-77
2022/05/14 03:19:04;;;;;;;;;;;12.80;99.90;;;;;;5056080;28;19908;-76
2022/05/14 03:21:29;;;;;;;;;;;12.90;99.90;;;;;;5056093;28;20381;-80
2022/05/14 03:23:55;;;;;;;;;;;12.90;99.90;;;;;;5056027;28;20369;-79
2022/05/14 03:26:20;;;;;;;;;;;13.00;99.90;;;;;;5055964;28;20369;-81
2022/05/14 03:28:46;;;;;;;;;;;12.70;99.90;;;;;;5056099;28;19912;-78
2022/05/14 03:31:12;;;;;;;;;;;12.80;99.90;;;;;;5055907;28;19916;-78
2022/05/14 03:33:38;;;;;;;;;;;12.80;99.90;;;;;;5055873;28;19917;-78
2022/05/14 03:36:05;;;;;;;;;;;12.80;99.90;;;;;;5055603;28;20266;-77
2022/05/14 03:38:30;;;;;;;;;;;12.80;99.90;;;;;;5056018;28;19996;-78
2022/05/14 03:40:56;;;;;;;;;;;12.50;99.90;;;;;;5055765;28;20394;-78
2022/05/14 03:43:22;;;;;;;;;;;12.40;99.90;;;;;;5055750;28;19915;-77
2022/05/14 03:45:47;;;;;;;;;;;12.50;99.90;;;;;;5055595;28;19996;-78
2022/05/14 03:48:13;;;;;;;;;;;12.60;99.90;;;;;;5037678;28;19952;-79
2022/05/14 03:50:38;;;;;;;;;;;12.70;99.90;;;;;;5055558;28;20379;-78
2022/05/14 03:53:04;;;;;;;;;;;12.80;99.90;;;;;;5055524;28;19964;-79
2022/05/14 03:55:29;;;;;;;;;;;12.90;99.90;;;;;;5055500;28;19909;-78
2022/05/14 03:57:55;;;;;;;;;;;12.90;99.90;;;;;;5055327;28;20249;-80
2022/05/14 04:00:21;;;;;;;;;;;12.90;99.90;;;;;;5055542;28;19908;-77
2022/05/14 04:02:47;;;;;;;;;;;12.90;99.90;;;;;;5055462;28;19916;-79
2022/05/14 04:05:13;;;;;;;;;;;13.00;99.90;;;;;;5055223;28;20368;-78
2022/05/14 04:07:43;;;;;;;;;;;12.80;99.90;;;;;;5055222;28;19913;-79
2022/05/14 04:10:10;;;;;;;;;;;12.70;99.90;;;;;;5055224;28;19920;-79
2022/05/14 04:12:35;;;;;;;;;;;12.70;99.90;;;;;;5054697;28;19909;-79
2022/05/14 04:15:01;;;;;;;;;;;12.80;99.90;;;;;;5055044;28;19932;-78
2022/05/14 04:17:27;;;;;;;;;;;12.80;99.90;;;;;;5054948;28;20364;-79
2022/05/14 04:19:52;;;;;;;;;;;12.70;99.90;;;;;;5054951;28;19916;-81
2022/05/14 04:22:18;;;;;;;;;;;12.80;99.90;;;;;;5054903;28;19958;-77
2022/05/14 04:24:43;;;;;;;;;;;12.80;99.90;;;;;;5054871;28;19915;-78
2022/05/14 04:27:09;;;;;;;;;;;12.70;99.90;;;;;;5055061;28;19963;-77
2022/05/14 04:29:34;;;;;;;;;;;12.40;99.90;;;;;;5054937;28;19909;-78
2022/05/14 04:32:00;;;;;;;;;;;12.30;99.90;;;;;;5054690;28;19988;-78
2022/05/14 04:34:26;;;;;;;;;;;12.40;99.90;;;;;;5054850;28;19916;-80
2022/05/14 04:36:51;;;;;;;;;;;12.50;99.90;;;;;;5054374;28;20355;-77
2022/05/14 04:39:17;;;;;;;;;;;12.50;99.90;;;;;;5054349;28;19909;-77
2022/05/14 04:41:42;;;;;;;;;;;12.50;99.90;;;;;;5054546;28;19916;-78
2022/05/14 04:44:08;;;;;;;;;;;12.60;99.90;;;;;;5054485;28;20289;-79
2022/05/14 04:46:35;;;;;;;;;;;12.70;99.90;;;;;;5054433;28;19909;-79
2022/05/14 04:49:01;;;;;;;;;;;12.70;99.90;;;;;;5054706;28;19909;-75
2022/05/14 04:51:26;;;;;;;;;;;12.60;99.90;;;;;;5054292;28;19908;-75
2022/05/14 04:53:52;;;;;;;;;;;12.60;99.90;;;;;;5054333;28;20289;-80
2022/05/14 04:56:18;;;;;;;;;;;12.60;99.90;;;;;;5054381;28;19962;-75
2022/05/14 04:58:43;;;;;;;;;;;12.60;99.90;;;;;;5036306;28;19909;-75
2022/05/14 05:01:09;;;;;;;;;;;12.70;99.90;;;;;;5036273;28;19913;-78
2022/05/14 05:03:34;;;;;;;;;;;12.80;99.90;;;;;;5054137;28;19909;-77
2022/05/14 05:06:00;;;;;;;;;;;12.80;99.90;;;;;;5054071;28;20331;-76
2022/05/14 05:08:27;;;;;;;;;;;12.90;99.90;;;;;;5036076;28;19909;-78
2022/05/14 05:10:53;;;;;;;;;;;13.00;99.90;;;;;;5036099;28;19909;-76
2022/05/14 05:13:20;;;;;;;;;;;13.00;99.90;;;;;;5053966;28;20369;-77
2022/05/14 05:15:46;;;;;;;;;;;12.90;99.90;;;;;;5054055;28;19908;-74
2022/05/14 05:18:12;;;;;;;;;;;12.90;99.90;;;;;;5053787;28;19994;-76
2022/05/14 05:20:39;;;;;;;;;;;13.00;99.90;;;;;;5053895;28;19915;-74
2022/05/14 05:23:05;;;;;;;;;;;12.90;99.90;;;;;;5053587;28;19913;-76
2022/05/14 05:25:31;;;;;;;;;;;13.00;99.90;;;;;;5053883;28;19908;-74
2022/05/14 05:27:57;;;;;;;;;;;13.30;99.90;;;;;;5053859;28;20280;-76
2022/05/14 05:30:22;;;;;;;;;;;13.60;99.90;;;;;;5053697;28;19909;-79
2022/05/14 05:32:48;;;;;;;;;;;13.80;99.90;;;;;;5053636;28;20335;-80
2022/05/14 05:35:14;;;;;;;;;;;13.90;99.90;;;;;;5053415;28;19971;-79
2022/05/14 05:37:39;;;;;;;;;;;13.90;99.90;;;;;;5053756;28;19927;-80
2022/05/14 05:40:05;;;;;;;;;;;14.10;99.90;;;;;;5053795;28;19963;-74
2022/05/14 05:42:32;;;;;;;;;;;14.20;99.90;;;;;;5053552;28;19909;-77
2022/05/14 05:44:58;;;;;;;;;;;14.20;99.90;;;;;;5035726;28;20274;-76
2022/05/14 05:47:23;;;;;;;;;;;14.30;99.90;;;;;;5053494;28;19958;-75
2022/05/14 05:49:49;;;;;;;;;;;14.40;99.90;;;;;;5053422;28;19997;-76
2022/05/14 05:52:15;;;;;;;;;;;14.40;99.90;;;;;;5035569;28;19970;-78
2022/05/14 05:57:29;;;;;;;;;;;14.70;99.90;;;;;;5053181;28;19959;-76
2022/05/14 05:59:55;;;;;;;;;;;14.80;99.90;;;;;;5053806;28;19909;-78
2022/05/14 06:02:21;;;;;;;;;;;14.90;99.90;;;;;;5053424;28;19955;-76
2022/05/14 06:04:47;;;;;;;;;;;14.80;99.90;;;;;;5053407;28;19959;-75
2022/05/14 06:07:12;;;;;;;;;;;14.80;99.90;;;;;;5053337;28;19944;-77
2022/05/14 06:09:38;;;;;;;;;;;14.70;99.90;;;;;;5053779;28;19909;-77
2022/05/14 06:12:04;;;;;;;;;;;14.70;99.90;;;;;;5053191;28;19916;-79
2022/05/14 06:14:29;;;;;;;;;;;14.90;99.90;;;;;;5053313;28;19913;-75
2022/05/14 06:16:55;;;;;;;;;;;15.30;99.90;;;;;;5053302;28;19917;-77
2022/05/14 06:19:21;;;;;;;;;;;15.70;99.90;;;;;;5053208;28;20316;-76
2022/05/14 06:21:46;;;;;;;;;;;15.90;99.90;;;;;;5053165;28;19908;-77
2022/05/14 06:24:12;;;;;;;;;;;16.20;99.90;;;;;;5053141;28;19915;-77
2022/05/14 06:26:37;;;;;;;;;;;16.50;99.90;;;;;;5053148;28;19916;-75
2022/05/14 06:29:05;;;;;;;;;;;16.50;99.90;;;;;;5053201;28;19932;-74
2022/05/14 06:31:30;;;;;;;;;;;16.70;99.90;;;;;;5053364;28;19966;-75
2022/05/14 06:33:56;;;;;;;;;;;16.90;99.90;;;;;;5053099;28;20386;-76
2022/05/14 06:36:22;;;;;;;;;;;17.00;99.90;;;;;;5055625;28;20393;-76
2022/05/14 06:38:48;;;;;;;;;;;17.30;99.90;;;;;;5056826;28;19908;-75
2022/05/14 06:41:14;;;;;;;;;;;17.20;99.90;;;;;;5038899;28;19909;-78
2022/05/14 06:43:40;;;;;;;;;;;17.20;99.90;;;;;;5056957;28;19919;-78
2022/05/14 06:46:06;;;;;;;;;;;17.20;99.90;;;;;;5056881;28;19909;-75
2022/05/14 06:48:32;;;;;;;;;;;17.30;99.90;;;;;;5038774;28;19909;-76
2022/05/14 06:51:02;;;;;;;;;;;17.60;99.90;;;;;;5056775;28;19916;-77
2022/05/14 06:53:28;;;;;;;;;;;17.90;99.90;;;;;;5056604;28;19909;-76
2022/05/14 06:55:54;;;;;;;;;;;17.90;99.40;;;;;;5056893;28;20000;-76
2022/05/14 06:58:23;;;;;;;;;;;17.60;97.80;;;;;;5056682;28;20266;-74
2022/05/14 07:00:50;;;;;;;;;;;17.60;98.50;;;;;;5038480;28;19909;-78
2022/05/14 07:08:44;;;;;;;;;;;17.20;98.90;;;;;;5056059;28;19916;-77
2022/05/14 07:11:10;;;;;;;;;;;17.20;98.90;;;;;;5056190;28;19913;-75
2022/05/14 07:13:36;;;;;;;;;;;18.00;96.80;;;;;;5056165;28;19916;-77
2022/05/14 07:16:02;;;;;;;;;;;19.70;93.00;;;;;;5056159;28;19992;-75
2022/05/14 07:18:28;;;;;;;;;;;20.90;87.60;;;;;;5056087;28;20495;-75
2022/05/14 07:20:54;;;;;;;;;;;22.00;82.40;;;;;;5056356;28;19909;-76
2022/05/14 07:23:19;;;;;;;;;;;22.50;78.90;;;;;;5056193;28;19962;-77
2022/05/14 07:25:45;;;;;;;;;;;23.10;73.30;;;;;;5056005;28;19909;-77
2022/05/14 07:28:11;;;;;;;;;;;23.70;69.60;;;;;;5055963;28;19908;-76
2022/05/14 07:30:36;;;;;;;;;;;23.70;68.70;;;;;;5056292;28;19912;-76
2022/05/14 07:33:02;;;;;;;;;;;23.40;68.60;;;;;;5055864;28;19987;-74
2022/05/14 07:35:28;;;;;;;;;;;22.90;68.00;;;;;;5055613;28;19916;-76
2022/05/14 07:37:55;;;;;;;;;;;22.60;70.50;;;;;;5055746;28;19912;-75
2022/05/14 07:40:22;;;;;;;;;;;23.00;69.10;;;;;;5055768;28;19916;-77
2022/05/14 07:42:57;;;;;;;;;;;23.00;70.00;;;;;;5055669;28;19916;-77
2022/05/14 07:45:28;;;;;;;;;;;22.90;68.80;;;;;;5055691;28;20003;-78
2022/05/14 07:47:55;;;;;;;;;;;22.80;68.60;;;;;;5055361;28;19909;-78
2022/05/14 07:50:21;;;;;;;;;;;23.20;68.90;;;;;;5055547;28;19932;-78
2022/05/14 07:52:46;;;;;;;;;;;23.50;69.00;;;;;;5055620;28;20373;-77
2022/05/14 07:55:12;;;;;;;;;;;23.80;67.80;;;;;;5055419;28;19909;-78
2022/05/14 07:57:38;;;;;;;;;;;23.60;68.20;;;;;;5055034;28;20044;-77
2022/05/14 08:00:04;;;;;;;;;;;23.70;65.90;;;;;;5055323;28;20410;-77
2022/05/14 08:02:34;;;;;;;;;;;23.70;66.80;;;;;;5055187;28;20381;-76
2022/05/14 08:05:08;;;;;;;;;;;23.40;65.60;;;;;;5055330;28;20369;-75
2022/05/14 08:07:34;;;;;;;;;;;22.50;67.00;;;;;;5055200;28;19913;-77
2022/05/14 08:10:00;;;;;;;;;;;22.60;67.40;;;;;;5037213;28;19962;-76
2022/05/14 08:12:31;;;;;;;;;;;23.30;66.30;;;;;;5055208;28;19913;-76
2022/05/14 08:14:56;;;;;;;;;;;23.30;65.90;;;;;;5055112;28;19916;-76
2022/05/14 08:17:22;;;;;;;;;;;23.70;64.70;;;;;;5055155;28;19912;-76
2022/05/14 08:19:47;;;;;;;;;;;23.80;64.60;;;;;;5055284;28;19995;-78
2022/05/14 08:24:57;;;;;;;;;;;23.70;65.00;;;;;;5054852;28;19916;-77
2022/05/14 08:27:23;;;;;;;;;;;23.10;65.00;;;;;;5054846;28;19909;-75
2022/05/14 08:29:48;;;;;;;;;;;23.00;66.80;;;;;;5029557;28;19909;-78
2022/05/14 08:32:14;;;;;;;;;;;23.50;65.40;;;;;;5055605;28;20365;-76
2022/05/14 08:34:40;;;;;;;;;;;24.30;63.50;;;;;;5054096;28;19920;-78
2022/05/14 08:37:07;;;;;;;;;;;24.60;63.30;;;;;;5053733;28;19921;-76
2022/05/14 08:39:32;;;;;;;;;;;25.00;61.50;;;;;;5054299;28;19909;-76
2022/05/14 08:41:59;;;;;;;;;;;25.00;62.10;;;;;;5053634;28;20270;-78
2022/05/14 08:44:26;;;;;;;;;;;25.20;60.10;;;;;;5054194;28;19959;-78
2022/05/14 08:46:56;;;;;;;;;;;25.40;60.50;;;;;;5053856;28;20408;-77
2022/05/14 08:49:26;;;;;;;;;;;25.90;59.00;;;;;;5054170;28;19909;-76
2022/05/14 08:51:52;;;;;;;;;;;26.10;59.80;;;;;;5053461;28;19955;-78
2022/05/14 08:54:19;;;;;;;;;;;26.30;58.80;;;;;;5053985;28;20377;-76
2022/05/14 08:56:44;;;;;;;;;;;26.70;58.40;;;;;;5053879;28;20004;-75
2022/05/14 08:59:13;;;;;;;;;;;26.50;58.10;;;;;;5053059;28;19952;-77
2022/05/14 09:01:41;;;;;;;;;;;26.90;57.60;;;;;;5069453;28;19951;-76
2022/05/14 09:04:08;;;;;;;;;;;26.50;57.10;;;;;;5073820;28;19955;-76
2022/05/14 09:06:35;;;;;;;;;;;26.50;58.00;;;;;;5073895;28;19948;-76
2022/05/14 09:09:00;;;;;;;;;;;27.20;56.80;;;;;;5073609;28;20336;-76
2022/05/14 09:11:28;;;;;;;;;;;27.40;56.40;;;;;;5073321;28;19963;-74
2022/05/14 09:13:55;;;;;;;;;;;27.30;55.40;;;;;;5073721;28;19915;-77
2022/05/14 09:16:29;;;;;;;;;;;27.10;56.10;;;;;;5073539;28;19915;-76
2022/05/14 09:18:55;;;;;;;;;;;27.50;55.80;;;;;;5073684;28;19908;-78
2022/05/14 09:21:22;;;;;;;;;;;27.90;56.20;;;;;;5073132;28;19908;-74
2022/05/14 09:23:58;;;;;;;;;;;28.20;54.30;;;;;;5055661;28;19908;-74
2022/05/14 09:26:36;;;;;;;;;;;28.30;54.70;;;;;;5073466;28;19915;-78
2022/05/14 09:29:34;;;;;;;;;;;29.00;53.70;;;;;;5055551;28;19908;-75
2022/05/14 09:32:05;;;;;;;;;;;29.20;53.40;;;;;;5039269;28;19950;-74
2022/05/14 09:34:32;;;;;;;;;;;29.20;52.80;;;;;;5064327;28;19955;-77
2022/05/14 09:37:16;;;;;;;;;;;29.20;52.00;;;;;;5072987;28;19920;-76
2022/05/14 09:39:42;;;;;;;;;;;30.10;50.50;;;;;;5073640;28;20283;-77
2022/05/14 09:42:24;;;;;;;;;;;30.40;51.20;;;;;;5072761;28;19991;-76
2022/05/14 09:44:54;;;;;;;;;;;30.60;49.60;;;;;;5073182;28;19948;-77
2022/05/14 09:47:27;;;;;;;;;;;30.80;48.60;;;;;;5073370;28;19969;-77
2022/05/14 09:49:59;;;;;;;;;;;30.90;49.60;;;;;;5073300;28;19915;-78
2022/05/14 09:52:26;;;;;;;;;;;31.60;48.40;;;;;;5073306;28;19973;-78
2022/05/14 09:54:53;;;;;;;;;;;31.50;47.40;;;;;;5073132;28;19961;-79
2022/05/14 09:57:37;;;;;;;;;;;32.40;46.90;;;;;;5073028;28;20387;-77
2022/05/14 10:00:22;;;;;;;;;;;33.50;46.80;;;;;;5073098;28;19908;-78
2022/05/14 10:02:53;;;;;;;;;;;33.60;44.50;;;;;;5073464;28;19951;-77
2022/05/14 10:05:21;;;;;;;;;;;35.60;43.20;;;;;;5073906;28;19912;-76
2022/05/14 10:07:47;;;;;;;;;;;36.80;40.40;;;;;;5073559;28;19909;-80
2022/05/14 10:10:16;;;;;;;;;;;36.90;39.40;;;;;;5075844;28;19909;-75
2022/05/14 10:13:05;;;;;;;;;;;36.30;39.30;;;;;;5077364;28;19913;-77
2022/05/14 10:15:37;;;;;;;;;;;36.20;39.60;;;;;;5069030;28;20406;-75
2022/05/14 10:18:09;;;;;;;;;;;36.90;38.50;;;;;;5077431;28;19912;-76
2022/05/14 10:20:34;;;;;;;;;;;37.40;39.20;;;;;;5059263;28;20433;-79
2022/05/14 10:28:42;;;;;;;;;;;37.40;36.90;;;;;;5076910;28;20383;-77
2022/05/14 10:31:11;;;;;;;;;;;37.20;37.40;;;;;;5077124;28;20011;-79
2022/05/14 10:33:37;;;;;;;;;;;36.60;37.40;;;;;;5077464;28;19909;-76
2022/05/14 10:36:02;;;;;;;;;;;37.50;37.50;;;;;;5076905;28;19920;-78
2022/05/14 10:38:35;;;;;;;;;;;38.20;37.10;;;;;;5058935;28;19916;-78
2022/05/14 10:41:06;;;;;;;;;;;37.30;35.90;;;;;;5076979;28;19978;-77
2022/05/14 10:43:47;;;;;;;;;;;38.10;36.70;;;;;;5076926;28;19908;-78
2022/05/14 10:46:17;;;;;;;;;;;37.40;36.70;;;;;;5076774;28;19969;-77
2022/05/14 10:49:01;;;;;;;;;;;37.30;36.40;;;;;;5076820;28;19908;-78
2022/05/14 10:51:36;;;;;;;;;;;37.10;35.80;;;;;;5058692;28;20352;-77
2022/05/14 10:54:02;;;;;;;;;;;37.00;36.90;;;;;;5076628;28;19961;-78
2022/05/14 10:56:29;;;;;;;;;;;37.20;36.60;;;;;;5076532;28;19908;-78
2022/05/14 10:59:24;;;;;;;;;;;37.00;36.90;;;;;;5076567;28;19916;-80
2022/05/14 11:01:53;;;;;;;;;;;37.20;37.20;;;;;;5062923;28;20324;-76
2022/05/14 11:04:20;;;;;;;;;;;35.90;37.80;;;;;;5076520;28;20008;-78
2022/05/14 11:06:54;;;;;;;;;;;36.20;37.30;;;;;;5076536;28;19995;-76
2022/05/14 11:09:36;;;;;;;;;;;36.10;37.70;;;;;;5076482;28;20330;-76
2022/05/14 11:12:04;;;;;;;;;;;35.30;38.50;;;;;;5058225;28;19991;-79
2022/05/14 11:14:39;;;;;;;;;;;36.50;38.00;;;;;;5076274;28;19962;-77
2022/05/14 11:17:15;;;;;;;;;;;37.20;36.90;;;;;;5076177;28;20049;-79
2022/05/14 11:19:40;;;;;;;;;;;37.80;37.60;;;;;;5076307;28;20344;-78
2022/05/14 11:22:18;;;;;;;;;;;37.60;36.80;;;;;;5075294;28;19952;-78
2022/05/14 11:24:44;;;;;;;;;;;38.30;38.30;;;;;;5076441;28;19931;-80
2022/05/14 11:27:09;;;;;;;;;;;36.50;37.30;;;;;;5076145;28;20411;-79
2022/05/14 11:29:47;;;;;;;;;;;36.60;38.20;;;;;;5076025;28;20307;-77
2022/05/14 11:32:14;;;;;;;;;;;36.60;38.50;;;;;;5075995;28;19908;-76
2022/05/14 11:34:50;;;;;;;;;;;36.40;39.00;;;;;;5076150;28;19913;-76
2022/05/14 11:37:26;;;;;;;;;;;36.40;38.50;;;;;;5075441;28;19927;-78
2022/05/14 11:40:02;;;;;;;;;;;36.90;38.60;;;;;;5075928;28;20313;-77
2022/05/14 11:42:29;;;;;;;;;;;35.60;38.80;;;;;;5076061;28;19993;-77
2022/05/14 11:44:56;;;;;;;;;;;35.30;39.70;;;;;;5075755;28;19951;-76
2022/05/14 11:47:30;;;;;;;;;;;36.40;39.40;;;;;;5075893;28;20368;-80
2022/05/14 11:49:57;;;;;;;;;;;36.70;39.30;;;;;;5057644;28;19908;-78
2022/05/14 11:52:27;;;;;;;;;;;37.50;38.50;;;;;;5075718;28;19915;-78
2022/05/14 11:54:56;;;;;;;;;;;36.40;38.90;;;;;;5075641;28;19909;-77
2022/05/14 11:57:25;;;;;;;;;;;37.00;38.90;;;;;;5075582;28;20007;-77
2022/05/14 11:59:56;;;;;;;;;;;37.20;39.00;;;;;;5075468;28;19909;-77
2022/05/14 12:02:29;;;;;;;;;;;38.50;37.60;;;;;;5075448;28;19912;-77
2022/05/14 12:04:56;;;;;;;;;;;38.70;37.00;;;;;;5075501;28;19916;-79
2022/05/14 12:07:37;;;;;;;;;;;37.10;38.00;;;;;;5075298;28;20330;-77
2022/05/14 12:10:21;;;;;;;;;;;37.60;38.80;;;;;;5057319;28;19912;-77
2022/05/14 12:12:55;;;;;;;;;;;37.90;38.00;;;;;;5075175;28;20330;-76
2022/05/14 12:15:24;;;;;;;;;;;38.10;38.20;;;;;;5075322;28;19914;-78
2022/05/14 12:17:51;;;;;;;;;;;38.70;37.80;;;;;;5074970;28;19916;-76
2022/05/14 12:20:19;;;;;;;;;;;37.40;38.60;;;;;;5075297;28;19909;-78
2022/05/14 12:22:52;;;;;;;;;;;37.40;38.10;;;;;;5074958;28;20018;-78
2022/05/14 12:25:17;;;;;;;;;;;38.10;38.10;;;;;;5074943;28;19908;-78
2022/05/14 12:27:48;;;;;;;;;;;39.40;37.70;;;;;;5056928;28;19916;-79
2022/05/14 12:30:13;;;;;;;;;;;39.40;37.40;;;;;;5074753;28;19908;-77
2022/05/14 12:35:30;;;;;;;;;;;37.90;38.30;;;;;;5074371;28;19974;-78
2022/05/14 12:37:57;;;;;;;;;;;36.40;39.80;;;;;;5074809;28;19912;-77
2022/05/14 12:40:26;;;;;;;;;;;36.20;39.50;;;;;;5074835;28;19909;-77
2022/05/14 12:42:52;;;;;;;;;;;37.10;40.00;;;;;;5074604;28;20417;-77
2022/05/14 12:45:18;;;;;;;;;;;37.30;39.60;;;;;;5074539;28;19996;-79
2022/05/14 12:47:46;;;;;;;;;;;38.20;39.40;;;;;;5074516;28;19936;-77
2022/05/14 12:50:25;;;;;;;;;;;39.10;38.70;;;;;;5074635;28;19908;-79
2022/05/14 12:52:55;;;;;;;;;;;38.30;38.60;;;;;;5074686;28;20287;-77
2022/05/14 12:55:21;;;;;;;;;;;37.00;39.90;;;;;;5074362;28;20368;-76
2022/05/14 12:57:47;;;;;;;;;;;36.50;40.80;;;;;;5074226;28;19970;-75
2022/05/14 13:00:15;;;;;;;;;;;36.10;41.20;;;;;;5074278;28;20282;-77
2022/05/14 13:03:07;;;;;;;;;;;36.20;42.00;;;;;;5074273;28;19908;-77
2022/05/14 13:05:45;;;;;;;;;;;35.90;41.10;;;;;;5071051;28;20385;-76
2022/05/14 13:08:13;;;;;;;;;;;35.60;41.50;;;;;;5074191;28;19930;-78
2022/05/14 13:10:45;;;;;;;;;;;35.00;42.60;;;;;;5074253;28;19913;-77
2022/05/14 13:13:10;;;;;;;;;;;34.40;43.20;;;;;;5056279;28;19963;-76
2022/05/14 13:15:53;;;;;;;;;;;34.70;42.80;;;;;;5074010;28;19944;-77
2022/05/14 13:18:26;;;;;;;;;;;34.60;42.00;;;;;;5074150;28;19913;-78
2022/05/14 13:21:05;;;;;;;;;;;33.90;43.00;;;;;;5073945;28;19953;-77
2022/05/14 13:23:32;;;;;;;;;;;33.20;43.90;;;;;;5073923;28;19909;-76
2022/05/14 13:26:03;;;;;;;;;;;34.20;44.10;;;;;;5074129;28;19908;-78
2022/05/14 13:28:30;;;;;;;;;;;35.20;42.70;;;;;;5073996;28;20005;-76
2022/05/14 13:30:56;;;;;;;;;;;35.00;43.50;;;;;;5073891;28;19915;-77
2022/05/14 13:33:29;;;;;;;;;;;34.90;44.40;;;;;;5073889;28;19909;-78
2022/05/14 13:38:42;;;;;;;;;;;35.10;43.60;;;;;;5073262;28;19923;-76
2022/05/14 13:41:16;;;;;;;;;;;34.80;43.80;;;;;;5073780;28;20281;-77
2022/05/14 13:43:44;;;;;;;;;;;34.80;43.50;;;;;;5073353;28;19913;-78
2022/05/14 13:46:20;;;;;;;;;;;35.20;43.50;;;;;;5073670;28;19912;-76
2022/05/14 13:48:46;;;;;;;;;;;35.90;42.50;;;;;;5073784;28;19908;-78
2022/05/14 13:51:18;;;;;;;;;;;35.30;43.00;;;;;;5073688;28;19909;-76
2022/05/14 13:53:47;;;;;;;;;;;34.00;43.30;;;;;;5073809;28;20440;-78
2022/05/14 13:56:27;;;;;;;;;;;34.40;44.90;;;;;;5073577;28;19908;-77
2022/05/14 13:59:00;;;;;;;;;;;34.20;44.20;;;;;;5073423;28;19958;-77
2022/05/14 14:01:44;;;;;;;;;;;32.80;46.40;;;;;;5073548;28;19908;-77
2022/05/14 14:04:14;;;;;;;;;;;31.80;47.10;;;;;;5073542;28;19995;-78
2022/05/14 14:06:40;;;;;;;;;;;32.80;47.00;;;;;;5073545;28;19909;-76
2022/05/14 14:09:06;;;;;;;;;;;33.90;46.20;;;;;;5073442;28;20307;-77
2022/05/14 14:11:31;;;;;;;;;;;34.00;45.70;;;;;;5055444;28;19909;-76
2022/05/14 14:13:57;;;;;;;;;;;33.60;46.00;;;;;;5055415;28;20028;-78
2022/05/14 14:16:22;;;;;;;;;;;33.50;45.80;;;;;;5055315;28;19932;-78
2022/05/14 14:18:48;;;;;;;;;;;32.60;46.80;;;;;;5055328;28;19958;-78
2022/05/14 14:21:14;;;;;;;;;;;32.80;47.30;;;;;;5073338;28;19909;-77
2022/05/14 14:23:41;;;;;;;;;;;32.90;46.70;;;;;;5073711;28;20053;-77
2022/05/14 14:26:07;;;;;;;;;;;32.90;47.50;;;;;;5073615;28;19908;-78
2022/05/14 14:28:34;;;;;;;;;;;32.70;47.10;;;;;;5073277;28;19999;-80
2022/05/14 14:31:03;;;;;;;;;;;32.50;47.30;;;;;;5073220;28;20050;-77
2022/05/14 14:33:32;;;;;;;;;;;31.90;48.20;;;;;;5073196;28;19909;-76
2022/05/14 14:35:58;;;;;;;;;;;32.30;49.00;;;;;;5072951;28;19928;-75
2022/05/14 14:38:24;;;;;;;;;;;32.30;48.10;;;;;;5073105;28;19912;-77
2022/05/14 14:40:49;;;;;;;;;;;32.50;48.00;;;;;;5073266;28;20437;-76
2022/05/14 14:43:15;;;;;;;;;;;31.20;48.30;;;;;;5073265;28;19908;-78
2022/05/14 14:45:43;;;;;;;;;;;31.30;50.00;;;;;;5073125;28;19959;-76
2022/05/14 14:48:09;;;;;;;;;;;31.30;50.10;;;;;;5073060;28;20325;-77